createdAt,value
2023-10-19T00:01:11.364Z,6.78
2023-10-19T00:03:38.488Z,7.88
2023-10-19T00:06:06.403Z,7.15
2023-10-19T00:08:45.171Z,7.60
2023-10-19T00:11:22.582Z,7.57
2023-10-19T00:13:55.066Z,7.50
2023-10-19T00:16:29.991Z,7.20
2023-10-19T00:19:00.435Z,7.72
2023-10-19T00:21:29.525Z,7.15
2023-10-19T00:23:58.739Z,7.63
2023-10-19T00:26:26.793Z,7.40
2023-10-19T00:28:56.716Z,7.75
2023-10-19T00:31:24.297Z,7.32
2023-10-19T00:33:55.518Z,7.47
2023-10-19T00:36:23.529Z,7.57
2023-10-19T00:38:51.632Z,7.43
2023-10-19T00:41:30.304Z,7.40
2023-10-19T00:44:13.108Z,7.45
2023-10-19T00:46:43.224Z,7.53
2023-10-19T00:49:14.729Z,7.82
2023-10-19T00:51:55.066Z,7.30
2023-10-19T00:54:34.559Z,7.47
2023-10-19T00:57:11.636Z,7.85
2023-10-19T01:00:01.126Z,7.57
2023-10-19T01:02:27.586Z,7.90
2023-10-19T01:05:02.212Z,7.97
2023-10-19T01:07:30.352Z,7.60
2023-10-19T01:10:00.266Z,7.75
2023-10-19T01:12:33.973Z,7.15
2023-10-19T01:15:08.804Z,7.45
2023-10-19T01:17:40.219Z,7.65
2023-10-19T01:20:18.528Z,7.55
2023-10-19T01:23:15.545Z,7.57
2023-10-19T01:25:55.122Z,7.97
2023-10-19T01:28:39.783Z,8.13
2023-10-19T01:31:08.830Z,7.38
2023-10-19T01:33:36.028Z,7.65
2023-10-19T01:36:12.814Z,7.47
2023-10-19T01:38:40.068Z,7.80
2023-10-19T01:41:14.406Z,7.80
2023-10-19T01:43:44.903Z,8.20
2023-10-19T01:46:13.244Z,7.55
2023-10-19T01:48:44.761Z,7.93
2023-10-19T01:51:13.582Z,7.53
2023-10-19T01:53:41.020Z,7.30
2023-10-19T01:56:10.695Z,7.35
2023-10-19T01:58:38.326Z,7.20
2023-10-19T02:01:14.605Z,7.25
2023-10-19T02:03:44.606Z,7.03
2023-10-19T02:06:19.031Z,7.40
2023-10-19T02:08:57.552Z,7.68
2023-10-19T02:11:25.331Z,6.60
2023-10-19T02:13:55.303Z,6.45
2023-10-19T02:16:26.616Z,6.85
2023-10-19T02:18:53.250Z,6.85
2023-10-19T02:21:33.611Z,7.13
2023-10-19T02:24:00.264Z,6.78
2023-10-19T02:26:31.769Z,6.40
2023-10-19T02:28:59.415Z,6.65
2023-10-19T02:31:26.690Z,6.95
2023-10-19T02:34:01.126Z,6.78
2023-10-19T02:36:31.794Z,6.60
2023-10-19T02:39:09.123Z,7.07
2023-10-19T02:41:47.855Z,6.68
2023-10-19T02:44:19.329Z,6.45
2023-10-19T02:46:47.179Z,5.80
2023-10-19T02:49:15.819Z,6.68
2023-10-19T02:51:46.414Z,6.65
2023-10-19T02:54:21.553Z,6.60
2023-10-19T02:56:50.577Z,6.05
2023-10-19T02:59:17.874Z,6.38
2023-10-19T03:01:47.666Z,6.07
2023-10-19T03:04:14.104Z,5.95
2023-10-19T03:06:42.021Z,5.50
2023-10-19T03:09:30.923Z,6.25
2023-10-19T03:12:01.400Z,5.82
2023-10-19T03:14:28.352Z,5.55
2023-10-19T03:16:58.589Z,5.68
2023-10-19T03:19:26.519Z,5.40
2023-10-19T03:21:53.588Z,5.68
2023-10-19T03:24:41.865Z,5.18
2023-10-19T03:27:22.940Z,5.65
2023-10-19T03:29:56.989Z,5.38
2023-10-19T03:32:28.270Z,5.10
2023-10-19T03:35:01.317Z,6.45
2023-10-19T03:37:31.989Z,6.32
2023-10-19T03:39:59.404Z,5.75
2023-10-19T03:42:33.393Z,5.72
2023-10-19T03:45:03.209Z,5.47
2023-10-19T03:47:36.443Z,5.57
2023-10-19T03:50:07.854Z,5.88
2023-10-19T03:52:40.642Z,5.85
2023-10-19T03:55:12.474Z,6.15
2023-10-19T03:57:43.157Z,6.15
2023-10-19T04:00:16.738Z,6.20
2023-10-19T04:02:43.863Z,5.72
2023-10-19T04:05:15.476Z,6.28
2023-10-19T04:07:44.907Z,5.82
2023-10-19T04:10:30.650Z,6.30
2023-10-19T04:13:00.845Z,5.78
2023-10-19T04:15:27.924Z,5.72
2023-10-19T04:17:56.332Z,6.10
2023-10-19T04:20:23.239Z,6.20
2023-10-19T04:22:51.990Z,6.40
2023-10-19T04:25:30.554Z,7.13
2023-10-19T04:27:58.540Z,6.03
2023-10-19T04:30:28.500Z,6.55
2023-10-19T04:32:58.703Z,6.95
2023-10-19T04:35:25.570Z,6.57
2023-10-19T04:37:53.699Z,6.97
2023-10-19T04:40:22.273Z,6.90
2023-10-19T04:42:52.233Z,7.38
2023-10-19T04:45:19.056Z,7.38
2023-10-19T04:47:45.607Z,6.68
2023-10-19T04:50:12.151Z,6.53
2023-10-19T04:52:39.875Z,6.82
2023-10-19T04:55:06.798Z,7.07
2023-10-19T04:57:33.362Z,7.13
2023-10-19T04:59:59.716Z,7.00
2023-10-19T05:02:26.245Z,6.70
2023-10-19T05:04:52.712Z,7.07
2023-10-19T05:07:19.212Z,6.80
2023-10-19T05:09:46.602Z,6.85
2023-10-19T05:12:15.474Z,6.97
2023-10-19T05:14:43.136Z,6.95
2023-10-19T05:17:10.393Z,6.80
2023-10-19T05:19:38.699Z,6.60
2023-10-19T05:22:07.637Z,7.05
2023-10-19T05:24:34.134Z,6.85
2023-10-19T05:27:00.698Z,7.03
2023-10-19T05:29:27.247Z,6.32
2023-10-19T05:31:59.172Z,6.57
2023-10-19T05:34:27.888Z,7.25
2023-10-19T05:36:55.256Z,7.07
2023-10-19T05:39:21.988Z,7.68
2023-10-19T05:41:48.406Z,6.60
2023-10-19T05:44:14.793Z,7.20
2023-10-19T05:46:42.301Z,7.28
2023-10-19T05:49:09.131Z,7.20
2023-10-19T05:51:35.611Z,7.53
2023-10-19T05:54:04.816Z,7.05
2023-10-19T05:56:32.365Z,7.00
2023-10-19T05:58:59.314Z,7.53
2023-10-19T06:01:26.026Z,6.90
2023-10-19T06:03:53.099Z,6.13
2023-10-19T06:06:23.566Z,7.15
2023-10-19T06:08:54.507Z,7.30
2023-10-19T06:11:22.386Z,7.13
2023-10-19T06:13:49.065Z,6.32
2023-10-19T06:16:15.695Z,6.32
2023-10-19T06:18:44.428Z,7.45
2023-10-19T06:21:11.198Z,6.20
2023-10-19T06:23:38.113Z,7.10
2023-10-19T06:26:12.966Z,6.55
2023-10-19T06:28:41.888Z,7.63
2023-10-19T06:31:08.520Z,6.82
2023-10-19T06:33:35.155Z,6.80
2023-10-19T06:36:04.216Z,8.10
2023-10-19T06:38:32.459Z,8.85
2023-10-19T06:40:59.938Z,8.23
2023-10-19T06:43:31.077Z,7.40
2023-10-19T06:46:01.480Z,6.63
2023-10-19T06:48:27.992Z,6.57
2023-10-19T06:50:54.357Z,6.15
2023-10-19T06:53:20.769Z,8.88
2023-10-19T06:55:47.273Z,8.63
2023-10-19T06:58:15.678Z,6.72
2023-10-19T07:00:48.073Z,6.72
2023-10-19T07:03:14.856Z,6.07
2023-10-19T07:05:41.371Z,5.95
2023-10-19T07:08:08.157Z,6.15
2023-10-19T07:10:35.925Z,6.30
2023-10-19T07:13:03.045Z,6.28
2023-10-19T07:15:31.090Z,6.35
2023-10-19T07:17:57.940Z,6.72
2023-10-19T07:20:32.786Z,6.40
2023-10-19T07:23:04.571Z,6.40
2023-10-19T07:25:32.376Z,5.40
2023-10-19T07:28:00.992Z,5.07
2023-10-19T07:30:27.881Z,5.30
2023-10-19T07:33:00.044Z,5.68
2023-10-19T07:35:28.128Z,5.55
2023-10-19T07:37:56.601Z,5.20
2023-10-19T07:40:24.959Z,5.28
2023-10-19T07:42:55.099Z,4.40
2023-10-19T07:45:22.636Z,5.00
2023-10-19T07:47:49.187Z,5.30
2023-10-19T07:50:18.705Z,5.05
2023-10-19T07:52:48.285Z,5.32
2023-10-19T07:55:15.170Z,5.28
2023-10-19T07:57:45.172Z,5.22
2023-10-19T08:00:15.147Z,5.10
2023-10-19T08:02:46.877Z,4.85
2023-10-19T08:05:19.555Z,4.50
2023-10-19T08:07:48.205Z,5.15
2023-10-19T08:10:16.807Z,5.55
2023-10-19T08:12:44.885Z,4.70
2023-10-19T08:15:12.662Z,4.63
2023-10-19T08:17:40.668Z,5.47
2023-10-19T08:20:17.246Z,5.93
2023-10-19T08:22:49.630Z,4.82
2023-10-19T08:25:16.241Z,4.72
2023-10-19T08:27:45.959Z,5.03
2023-10-19T08:30:14.215Z,5.43
2023-10-19T08:32:42.806Z,4.35
2023-10-19T08:35:12.956Z,4.82
2023-10-19T08:37:43.231Z,4.32
2023-10-19T08:40:16.637Z,4.18
2023-10-19T08:42:44.097Z,4.55
2023-10-19T08:45:13.772Z,3.97
2023-10-19T08:47:58.322Z,4.28
2023-10-19T08:50:26.168Z,4.15
2023-10-19T08:52:58.014Z,4.45
2023-10-19T08:55:37.390Z,4.50
2023-10-19T08:58:11.439Z,4.40
2023-10-19T09:00:49.658Z,4.40
2023-10-19T09:03:18.278Z,4.00
2023-10-19T09:05:47.361Z,4.32
2023-10-19T09:08:19.009Z,4.70
2023-10-19T09:10:47.329Z,4.63
2023-10-19T09:13:15.694Z,4.70
2023-10-19T09:15:42.824Z,4.78
2023-10-19T09:18:19.592Z,4.45
2023-10-19T09:20:54.050Z,4.60
2023-10-19T09:23:26.135Z,4.05
2023-10-19T09:25:56.758Z,4.45
2023-10-19T09:28:25.000Z,4.25
2023-10-19T09:30:52.767Z,4.35
2023-10-19T09:33:19.395Z,4.40
2023-10-19T09:35:49.269Z,3.85
2023-10-19T09:38:17.194Z,3.88
2023-10-19T09:40:44.202Z,3.72
2023-10-19T09:43:17.375Z,3.90
2023-10-19T09:45:52.060Z,4.07
2023-10-19T09:48:20.474Z,3.88
2023-10-19T09:50:55.980Z,4.20
2023-10-19T09:53:26.408Z,3.95
2023-10-19T09:55:56.875Z,4.10
2023-10-19T09:58:27.074Z,4.07
2023-10-19T10:00:53.553Z,4.38
2023-10-19T10:03:45.521Z,4.05
2023-10-19T10:06:15.211Z,3.60
2023-10-19T10:08:46.223Z,3.63
2023-10-19T10:11:25.153Z,3.97
2023-10-19T10:13:52.585Z,4.15
2023-10-19T10:16:30.205Z,3.60
2023-10-19T10:19:01.272Z,3.70
2023-10-19T10:21:31.502Z,3.47
2023-10-19T10:24:00.507Z,4.00
2023-10-19T10:26:36.390Z,3.55
2023-10-19T10:31:47.064Z,3.45
2023-10-19T10:34:39.260Z,3.70
2023-10-19T10:37:09.109Z,3.30
2023-10-19T10:39:39.683Z,3.25
2023-10-19T10:42:08.345Z,2.88
2023-10-19T10:44:48.329Z,3.25
2023-10-19T10:47:25.579Z,2.72
2023-10-19T10:49:57.899Z,2.75
2023-10-19T10:52:35.106Z,2.58
2023-10-19T10:55:12.734Z,3.00
2023-10-19T10:57:40.653Z,2.65
2023-10-19T11:00:17.301Z,2.33
2023-10-19T11:02:46.931Z,2.72
2023-10-19T11:05:14.984Z,2.42
2023-10-19T11:08:02.545Z,2.55
2023-10-19T11:10:30.416Z,3.10
2023-10-19T11:13:14.338Z,3.15
2023-10-19T11:15:50.042Z,2.53
2023-10-19T11:18:36.907Z,2.70
2023-10-19T11:21:08.095Z,2.72
2023-10-19T11:23:42.515Z,2.42
2023-10-19T11:26:11.516Z,2.60
2023-10-19T11:28:44.102Z,2.58
2023-10-19T11:31:24.800Z,2.47
2023-10-19T11:33:53.775Z,2.38
2023-10-19T11:36:23.147Z,2.58
2023-10-19T11:38:52.733Z,2.92
2023-10-19T11:41:19.515Z,2.53
2023-10-19T11:43:47.387Z,3.20
2023-10-19T11:46:15.750Z,2.67
2023-10-19T11:48:43.981Z,2.78
2023-10-19T11:51:12.032Z,2.75
2023-10-19T11:53:39.704Z,2.42
2023-10-19T11:56:08.267Z,3.00
2023-10-19T11:58:35.929Z,2.60
2023-10-19T12:01:17.778Z,2.75
2023-10-19T12:03:46.792Z,2.42
2023-10-19T12:06:19.898Z,2.28
2023-10-19T12:08:48.024Z,2.47
2023-10-19T12:11:20.609Z,2.38
2023-10-19T12:13:48.488Z,2.33
2023-10-19T12:16:21.059Z,2.67
2023-10-19T12:18:49.816Z,2.30
2023-10-19T12:21:18.796Z,2.40
2023-10-19T12:23:45.656Z,2.75
2023-10-19T12:26:12.354Z,2.10
2023-10-19T12:28:39.621Z,2.45
2023-10-19T12:31:10.074Z,2.30
2023-10-19T12:33:37.600Z,2.67
2023-10-19T12:36:23.024Z,2.42
2023-10-19T12:38:50.659Z,1.60
2023-10-19T12:41:18.341Z,1.90
2023-10-19T12:43:44.922Z,2.25
2023-10-19T12:46:13.178Z,1.75
2023-10-19T12:48:39.609Z,2.17
2023-10-19T12:51:10.159Z,2.03
2023-10-19T12:53:38.212Z,2.28
2023-10-19T12:56:04.791Z,1.80
2023-10-19T12:58:33.033Z,2.08
2023-10-19T13:00:59.595Z,2.20
2023-10-19T13:03:32.783Z,2.38
2023-10-19T13:05:59.427Z,1.65
2023-10-19T13:08:28.559Z,1.80
2023-10-19T13:11:01.539Z,1.77
2023-10-19T13:13:31.434Z,1.85
2023-10-19T13:15:58.136Z,1.67
2023-10-19T13:18:30.665Z,1.73
2023-10-19T13:20:58.022Z,1.70
2023-10-19T13:23:24.548Z,2.05
2023-10-19T13:25:51.827Z,1.60
2023-10-19T13:28:19.776Z,1.50
2023-10-19T13:30:56.674Z,1.80
2023-10-19T13:33:23.442Z,1.95
2023-10-19T13:35:50.004Z,1.60
2023-10-19T13:38:18.651Z,2.25
2023-10-19T13:40:47.785Z,1.70
2023-10-19T13:43:15.276Z,1.83
2023-10-19T13:45:46.044Z,1.80
2023-10-19T13:48:14.002Z,1.70
2023-10-19T13:50:51.000Z,1.90
2023-10-19T13:53:17.856Z,2.00
2023-10-19T13:55:45.344Z,1.58
2023-10-19T13:58:12.284Z,1.48
2023-10-19T14:00:42.003Z,1.92
2023-10-19T14:03:10.191Z,1.92
2023-10-19T14:05:41.067Z,1.40
2023-10-19T14:08:08.047Z,1.83
2023-10-19T14:10:35.918Z,1.80
2023-10-19T14:13:03.485Z,1.63
2023-10-19T14:15:30.023Z,1.80
2023-10-19T14:17:59.335Z,1.90
2023-10-19T14:20:26.215Z,1.92
2023-10-19T14:22:54.784Z,1.70
2023-10-19T14:25:25.645Z,1.98
2023-10-19T14:27:55.724Z,1.88
2023-10-19T14:30:26.671Z,1.80
2023-10-19T14:32:53.230Z,2.00
2023-10-19T14:35:21.357Z,1.55
2023-10-19T14:37:50.254Z,1.98
2023-10-19T14:40:22.041Z,3.20
2023-10-19T14:42:49.464Z,3.40
2023-10-19T14:45:17.986Z,2.70
2023-10-19T14:47:52.669Z,2.25
2023-10-19T14:50:20.443Z,2.03
2023-10-19T14:52:49.814Z,1.92
2023-10-19T14:55:16.902Z,2.58
2023-10-19T14:57:54.650Z,1.88
2023-10-19T15:00:35.023Z,2.15
2023-10-19T15:03:08.524Z,2.00
2023-10-19T15:05:38.912Z,1.88
2023-10-19T15:08:06.653Z,1.95
2023-10-19T15:10:33.651Z,2.03
2023-10-19T15:13:00.558Z,1.92
2023-10-19T15:15:28.162Z,1.75
2023-10-19T15:17:55.206Z,2.40
2023-10-19T15:20:26.208Z,2.20
2023-10-19T15:22:52.856Z,2.28
2023-10-19T15:25:21.236Z,2.38
2023-10-19T15:27:51.743Z,3.20
2023-10-19T15:30:21.203Z,3.90
2023-10-19T15:32:48.987Z,4.60
2023-10-19T15:35:17.332Z,3.95
2023-10-19T15:37:49.192Z,4.70
2023-10-19T15:40:17.439Z,4.15
2023-10-19T15:42:44.594Z,4.15
2023-10-19T15:45:15.131Z,4.55
2023-10-19T15:47:41.902Z,4.72
2023-10-19T15:50:09.568Z,4.88
2023-10-19T15:52:41.594Z,4.82
2023-10-19T15:55:08.342Z,4.82
2023-10-19T15:57:34.802Z,5.53
2023-10-19T16:00:01.318Z,5.32
2023-10-19T16:02:27.854Z,5.80
2023-10-19T16:04:54.418Z,6.22
2023-10-19T16:07:20.911Z,5.97
2023-10-19T16:09:47.337Z,6.47
2023-10-19T16:12:14.717Z,6.45
2023-10-19T16:14:41.435Z,6.15
2023-10-19T16:17:10.007Z,6.50
2023-10-19T16:19:36.677Z,6.70
2023-10-19T16:22:03.237Z,6.22
2023-10-19T16:24:30.346Z,6.88
2023-10-19T16:26:59.790Z,6.47
2023-10-19T16:29:27.277Z,6.78
2023-10-19T16:31:59.369Z,6.95
2023-10-19T16:34:26.337Z,7.43
2023-10-19T16:36:52.832Z,7.05
2023-10-19T16:39:19.297Z,7.13
2023-10-19T16:41:47.244Z,7.18
2023-10-19T16:44:13.950Z,7.72
2023-10-19T16:46:40.763Z,7.15
2023-10-19T16:49:07.321Z,7.88
2023-10-19T16:51:37.108Z,8.98
2023-10-19T16:54:04.701Z,9.15
2023-10-19T16:56:31.172Z,10.02
2023-10-19T16:58:57.602Z,9.63
2023-10-19T17:01:24.222Z,10.68
2023-10-19T17:03:50.730Z,11.07
2023-10-19T17:06:17.766Z,11.35
2023-10-19T17:08:45.783Z,11.15
2023-10-19T17:11:12.907Z,11.90
2023-10-19T17:13:40.284Z,12.20
2023-10-19T17:16:07.026Z,12.27
2023-10-19T17:18:34.967Z,12.48
2023-10-19T17:21:03.449Z,12.13
2023-10-19T17:23:30.171Z,12.82
2023-10-19T17:25:56.771Z,12.63
2023-10-19T17:28:23.152Z,12.93
2023-10-19T17:30:52.273Z,11.85
2023-10-19T17:33:19.338Z,11.65
2023-10-19T17:35:46.067Z,11.57
2023-10-19T17:38:13.953Z,12.05
2023-10-19T17:40:40.753Z,11.88
2023-10-19T17:43:10.489Z,12.13
2023-10-19T17:45:37.681Z,12.60
2023-10-19T17:48:05.122Z,12.48
2023-10-19T17:50:32.780Z,11.32
2023-10-19T17:53:01.782Z,12.10
2023-10-19T17:55:28.467Z,11.90
2023-10-19T17:57:55.059Z,11.50
2023-10-19T18:00:21.661Z,11.70
2023-10-19T18:02:49.107Z,12.57
2023-10-19T18:05:15.955Z,12.23
2023-10-19T18:07:42.682Z,12.35
2023-10-19T18:10:09.731Z,12.55
2023-10-19T18:12:39.173Z,12.98
2023-10-19T18:15:09.147Z,12.75
2023-10-19T18:17:36.579Z,12.82
2023-10-19T18:20:08.908Z,12.85
2023-10-19T18:22:38.832Z,12.52
2023-10-19T18:25:06.093Z,11.88
2023-10-19T18:27:32.546Z,12.02
2023-10-19T18:30:00.044Z,12.38
2023-10-19T18:32:27.211Z,12.30
2023-10-19T18:34:53.710Z,12.25
2023-10-19T18:37:20.310Z,12.73
2023-10-19T18:39:46.821Z,12.23
2023-10-19T18:42:13.637Z,13.18
2023-10-19T18:44:40.074Z,11.55
2023-10-19T18:47:06.546Z,13.27
2023-10-19T18:49:33.234Z,13.05
2023-10-19T18:51:59.712Z,12.95
2023-10-19T18:54:26.902Z,13.13
2023-10-19T18:56:53.369Z,13.18
2023-10-19T18:59:19.851Z,13.38
2023-10-19T19:01:46.587Z,13.95
2023-10-19T19:04:12.956Z,14.27
2023-10-19T19:06:40.050Z,13.60
2023-10-19T19:09:06.501Z,13.57
2023-10-19T19:11:32.940Z,13.70
2023-10-19T19:13:59.400Z,14.77
2023-10-19T19:16:26.831Z,14.55
2023-10-19T19:18:53.257Z,14.50
2023-10-19T19:21:20.259Z,14.95
2023-10-19T19:23:47.910Z,14.90
2023-10-19T19:26:15.218Z,15.73
2023-10-19T19:28:44.229Z,15.85
2023-10-19T19:31:19.470Z,13.85
2023-10-19T19:33:49.533Z,15.48
2023-10-19T19:36:18.951Z,15.68
2023-10-19T19:38:46.573Z,15.40
2023-10-19T19:41:16.752Z,14.15
2023-10-19T19:43:44.379Z,14.60
2023-10-19T19:46:10.884Z,14.65
2023-10-19T19:48:37.503Z,15.02
2023-10-19T19:51:05.331Z,14.27
2023-10-19T19:53:32.017Z,14.85
2023-10-19T19:55:59.330Z,14.77
2023-10-19T19:58:26.590Z,15.18
2023-10-19T20:00:53.008Z,15.73
2023-10-19T20:03:19.530Z,16.27
2023-10-19T20:05:46.117Z,16.00
2023-10-19T20:08:12.795Z,15.80
2023-10-19T20:10:44.565Z,16.27
2023-10-19T20:13:15.466Z,15.88
2023-10-19T20:15:42.777Z,15.80
2023-10-19T20:18:10.187Z,16.60
2023-10-19T20:20:36.789Z,17.15
2023-10-19T20:23:03.469Z,16.52
2023-10-19T20:25:30.226Z,17.80
2023-10-19T20:27:58.124Z,15.45
2023-10-19T20:30:25.445Z,16.00
2023-10-19T20:32:53.225Z,15.75
2023-10-19T20:35:21.793Z,16.20
2023-10-19T20:37:49.235Z,16.42
2023-10-19T20:40:22.459Z,15.32
2023-10-19T20:42:55.396Z,17.13
2023-10-19T20:45:23.368Z,16.05
2023-10-19T20:47:52.921Z,16.20
2023-10-19T20:50:23.350Z,16.65
2023-10-19T20:52:55.545Z,17.10
2023-10-19T20:55:21.969Z,16.30
2023-10-19T20:57:48.740Z,17.23
2023-10-19T21:00:15.564Z,18.38
2023-10-19T21:02:42.925Z,18.17
2023-10-19T21:05:13.517Z,17.80
2023-10-19T21:07:40.205Z,19.13
2023-10-19T21:10:13.102Z,19.02
2023-10-19T21:12:40.579Z,19.42
2023-10-19T21:15:13.867Z,17.67
2023-10-19T21:17:49.393Z,18.45
2023-10-19T21:20:17.118Z,17.88
2023-10-19T21:22:44.806Z,18.45
2023-10-19T21:25:17.274Z,17.95
2023-10-19T21:27:45.237Z,18.00
2023-10-19T21:30:14.324Z,17.25
2023-10-19T21:32:42.920Z,18.52
2023-10-19T21:35:10.571Z,18.90
2023-10-19T21:37:37.546Z,17.75
2023-10-19T21:40:05.635Z,18.77
2023-10-19T21:42:32.836Z,18.67
2023-10-19T21:44:59.285Z,18.52
2023-10-19T21:47:27.012Z,18.48
2023-10-19T21:49:53.846Z,18.40
2023-10-19T21:52:24.890Z,19.38
2023-10-19T21:54:52.084Z,19.23
2023-10-19T21:57:19.095Z,18.73
2023-10-19T21:59:46.266Z,19.42
2023-10-19T22:02:12.965Z,19.17
2023-10-19T22:04:40.818Z,19.75
2023-10-19T22:07:07.459Z,19.38
2023-10-19T22:09:34.586Z,20.15
2023-10-19T22:12:01.654Z,20.42
2023-10-19T22:14:29.398Z,19.95
2023-10-19T22:16:56.860Z,20.42
2023-10-19T22:19:27.874Z,20.08
2023-10-19T22:21:57.116Z,19.83
2023-10-19T22:24:23.556Z,19.58
2023-10-19T22:26:56.521Z,19.83
2023-10-19T22:29:23.167Z,21.15
2023-10-19T22:31:52.816Z,20.52
2023-10-19T22:34:19.854Z,19.33
2023-10-19T22:36:46.405Z,21.15
2023-10-19T22:39:13.564Z,20.23
2023-10-19T22:41:40.027Z,21.60
2023-10-19T22:44:08.186Z,20.98
2023-10-19T22:46:39.769Z,20.33
2023-10-19T22:49:06.706Z,20.35
2023-10-19T22:51:33.183Z,20.00
2023-10-19T22:53:59.934Z,20.80
2023-10-19T22:56:26.411Z,21.15
2023-10-19T22:58:54.148Z,22.30
2023-10-19T23:01:21.130Z,21.45
2023-10-19T23:03:47.881Z,20.27
2023-10-19T23:06:15.223Z,19.15
2023-10-19T23:08:42.150Z,20.55
2023-10-19T23:11:10.331Z,21.30
2023-10-19T23:13:39.285Z,20.77
2023-10-19T23:16:07.028Z,20.70
2023-10-19T23:18:36.975Z,20.35
2023-10-19T23:21:04.970Z,19.42
2023-10-19T23:23:32.330Z,20.33
2023-10-19T23:26:01.814Z,20.17
2023-10-19T23:28:31.844Z,20.20
2023-10-19T23:31:06.085Z,21.58
2023-10-19T23:33:33.516Z,21.48
2023-10-19T23:36:00.758Z,21.20
2023-10-19T23:38:27.629Z,20.92
2023-10-19T23:40:54.318Z,19.88
2023-10-19T23:43:21.255Z,19.52
2023-10-19T23:45:48.623Z,20.50
2023-10-19T23:48:19.397Z,20.67
2023-10-19T23:50:45.805Z,20.10
2023-10-19T23:53:12.354Z,20.58
2023-10-19T23:55:41.608Z,20.30
2023-10-19T23:58:08.135Z,19.25
